Meteo Giornale » Osservazioni meteo Francia » Nizza

ore: 09:30 - Osservazioni Meteo Nizza
Lat. 43° 39' N Lon. 7° 12' E Alt. 4 metri s.l.m.

sereno Europe/Paris

20 °C

Sereno

Temp. 24 Ore

17 °C

24 °C

Nord-Ovest

9.3 Km/h

Dew point 11 °C

Umidità 56 %

Visibilità  10 Km

Il sole sorge alle ore 07:16

Il sole tramonta alle ore 19:32

Data e Ora Cielo e Fenomeni T °C DP °C Um. % Pres. hPa Vis. km Vento km/h
Oggi h: 09:30 sereno Sereno 20 11 56 1020 10 NO 9.3
Oggi h: 09:00 sereno Sereno 19 11 59 1020 10 N/NO 11.1
Oggi h: 08:30 sereno Sereno 18 11 63 1020 10 N/NO 14.8
Oggi h: 08:00 sereno Sereno 17 11 67 1019 10 N/NO 16.7
Oggi h: 07:30 sereno Sereno 17 11 67 1019 10 N 13
Oggi h: 07:00 sereno Sereno 17 11 67 1019 10 N/NO 13
Oggi h: 06:30 sereno Sereno 17 11 67 1019 10 N/NO 16.7
Oggi h: 06:00 sereno Sereno 17 12 72 1018 10 N/NO 14.8
Oggi h: 05:30 sereno Sereno 17 12 72 1018 10 N/NO 11.1
Oggi h: 05:00 sereno Sereno 17 12 72 1018 10 N/NO 11.1
Oggi h: 04:30 sereno Sereno 17 12 72 1018 10 N/NO 16.7
Oggi h: 04:00 sereno Sereno 17 12 72 1018 10 N/NO 11.1
Oggi h: 03:30 sereno Sereno 17 12 72 1018 10 N/NO 16.7
Oggi h: 02:00 sereno Sereno 19 12 63 1017 10 N/NO 16.7
Oggi h: 01:30 sereno Sereno 18 12 67 1017 10 N/NO 20.3
Oggi h: 01:00 sereno Sereno 18 12 67 1017 10 N/NO 18.5
Oggi h: 00:30 sereno Sereno 18 13 72 1017 10 N/NO 14.8
Oggi h: 00:00 sereno Sereno 19 13 68 1017 10 N 18.5
Ieri h: 23:30 sereno Sereno 19 13 68 1017 10 N/NO 14.8
Ieri h: 23:00 nuvoloso Nuvoloso 19 13 68 1016 10 N/NO 14.8
Ieri h: 22:30 nuvoloso Nuvoloso 19 13 68 1016 10 N/NO 16.7
Ieri h: 22:00 molto_nuvoloso Molto Nuvoloso 19 14 72 1016 10 N/NO 18.5
Ieri h: 21:30 nuvoloso Nuvoloso 20 15 72 1016 10 O 14.8
Ieri h: 20:30 nuvoloso_temporali Temporale con Pioggia Debole 20 18 88 1015 6 N 5.5
Ieri h: 20:00 nuvoloso_temporali Temporale con Pioggia Debole 20 17 82 1015 4 N 7.4
Ieri h: 19:30 nuvoloso_temporali Temporale con Pioggia Debole 22 18 78 1014 10 E/NE 20.3
Ieri h: 19:00 nuvoloso_piovaschi Debole Rovescio di Pioggia 23 17 68 1014 10 E 20.3
Ieri h: 18:36 nuvoloso_piovaschi Debole Rovescio di Pioggia 23 17 68 1014 10 E/SE 20.3
Ieri h: 18:30 nuvoloso_temporali Temporale nelle Vicinanze 23 17 68 1013 10 E/SE 18.5
Ieri h: 18:00 molto_nuvoloso Molto Nuvoloso 23 17 68 1013 10 E/SE 16.7
Ieri h: 17:30 nuvoloso Nuvoloso 23 17 68 1013 10 SE 16.7
Ieri h: 17:00 poco_nuvoloso Poco Nuvoloso 24 17 64 1013 10 SE 14.8
Ieri h: 15:30 poco_nuvoloso Poco Nuvoloso 24 14 53 1013 10 S 14.8
Ieri h: 15:00 poco_nuvoloso Poco Nuvoloso 24 15 57 1013 10 S 13
Ieri h: 14:30 poco_nuvoloso Poco Nuvoloso 24 14 53 1013 10 S 13
Ieri h: 14:00 poco_nuvoloso Poco Nuvoloso 24 14 53 1013 10 S 14.8
Ieri h: 13:30 poco_nuvoloso Poco Nuvoloso 24 13 50 1013 10 S 11.1
Ieri h: 12:30 poco_nuvoloso Poco Nuvoloso 24 14 53 1013 10 S 9.3
Ieri h: 12:00 sereno Sereno 24 15 57 1013 10 S/SE 7.4
Ieri h: 11:30 sereno Sereno 24 13 50 1013 10 N 5.5